Dirección General De Aeronáutica Civil

Dirección Meteorológica de Chile - Servicios Climáticos

Informe General de Control de Calidad de la Estación

Listado de niveles de control de calidad para algunos parámetros
Estación Panguilemo (350028)
Fecha de Revisión de los datos :

Elementos

Registros Niveles de Control Total
Nivel 0 Nivel 1 Nivel 2 Nivel 3 Errores Porcentaje
01 Temperatura del Aire Seco 72.500 0 . 0 . 0 . 0 . 0 0.00 %
02 Temperatura de Rocío 64.807 0 . 0 . 0 . 0 . 0 0.00 %
03 Humedad Relativa del Aire 64.804 0 . 0 . 0 . 0 . 0 0.00 %
04 Temperatura Máxima PM 5.636 0 . 0 . 18 0.32 % 0 . 18 0.32 %
05 Temperatura Mínima AM 5.618 0 . 0 . 5 0.09 % 0 . 5 0.09 %
06 Viento a 10 m. de Altura 69.590 0 . 2 0.00 % 0 . 0 . 2 0.00 %
07 Agua Caida, Acumulada 6 Horas 10.796 0 . 0 . 0 . 0 . 0 0.00 %
08 Presión Atm. a Nivel de Estación (QFE) 64.804 0 . 0 . 0 . 0 . 0 0.00 %
09 Presión Atm. a Nivel Medio del Mar (QFF) 64.804 0 . 0 . 0 . 0 . 0 0.00 %
10 Presión Atm. Estándar OACI (QNH) 64.804 0 . 0 . 0 . 0 . 0 0.00 %

Totales

488.163 . 0.0000 % . 0.0004 % . 0.0047 % . 0.0000 % 25 0.0051 %

Detalle de Errores Recientes

Fecha del Dato Descripción Información Error Fecha Ingreso
2002-05-02 00:00:00 No se informa dirección del Viento (dd), pero si una fuerza y el viento no es variable 2023-12-30 22:11:00
2002-11-01 12:00:00 Viento calma fue mal ingresado. dd = 0 - ff = 2 2023-12-30 22:12:00
2002-09-01 00:00:00 Temperatura 16.2 del 31-08-2002 18:00, Mayor que la Máxima 6.2 01-09-2002 00:00 16.2 -- 6.2 2023-12-30 22:12:00
2002-11-16 00:00:00 Temperatura 27.1 del 15-11-2002 18:00, Mayor que la Máxima 24.0 16-11-2002 00:00 27.1 -- 24.0 2023-12-30 22:12:00
2002-12-01 00:00:00 Temperatura 24.0 del 30-11-2002 18:00, Mayor que la Máxima 23.4 01-12-2002 00:00 24.0 -- 23.4 2023-12-30 22:12:00
2003-04-29 00:00:00 Temperatura 19.2 del 28-04-2003 18:00, Mayor que la Máxima 18.2 29-04-2003 00:00 19.2 -- 18.2 2023-12-30 22:12:00
2003-07-27 00:00:00 Temperatura 16.2 del 26-07-2003 18:00, Mayor que la Máxima 12.2 27-07-2003 00:00 16.2 -- 12.2 2023-12-30 00:41:00
2003-10-30 00:00:00 Temperatura 26.0 del 29-10-2003 18:00, Mayor que la Máxima 22.2 30-10-2003 00:00 26.0 -- 22.2 2023-12-30 00:41:00
2003-11-17 00:00:00 Temperatura 14.0 del 16-11-2003 18:00, Mayor que la Máxima 11.4 17-11-2003 00:00 14.0 -- 11.4 2023-12-30 00:41:00
2003-12-05 00:00:00 Temperatura 22.0 del 04-12-2003 18:00, Mayor que la Máxima 20.4 05-12-2003 00:00 22.0 -- 20.4 2023-12-30 00:41:00
2004-01-11 00:00:00 Temperatura 32.0 del 10-01-2004 18:00, Mayor que la Máxima 31.0 11-01-2004 00:00 32.0 -- 31.0 2023-12-30 00:41:00
2004-04-10 00:00:00 Temperatura 23.2 del 09-04-2004 18:00, Mayor que la Máxima 22.4 10-04-2004 00:00 23.2 -- 22.4 2023-12-30 00:42:00
2004-04-16 00:00:00 Temperatura 17.2 del 15-04-2004 18:00, Mayor que la Máxima 16.4 16-04-2004 00:00 17.2 -- 16.4 2023-12-30 00:42:00
2004-05-02 00:00:00 Temperatura 18.1 del 01-05-2004 18:00, Mayor que la Máxima 16.2 02-05-2004 00:00 18.1 -- 16.2 2023-12-31 02:47:00
2004-05-04 00:00:00 Temperatura 20.4 del 03-05-2004 18:00, Mayor que la Máxima 16.8 04-05-2004 00:00 20.4 -- 16.8 2023-12-31 02:47:00
2004-05-21 00:00:00 Temperatura 14.2 del 20-05-2004 18:00, Mayor que la Máxima 14.1 21-05-2004 00:00 14.2 -- 14.1 2023-12-31 02:47:00
2004-05-23 00:00:00 Temperatura 17.0 del 22-05-2004 18:00, Mayor que la Máxima 12.4 23-05-2004 00:00 17.0 -- 12.4 2023-12-31 02:47:00
2004-06-08 00:00:00 Temperatura 14.2 del 07-06-2004 18:00, Mayor que la Máxima 13.4 08-06-2004 00:00 14.2 -- 13.4 2023-12-31 02:47:00
2004-06-27 00:00:00 Temperatura 14.0 del 26-06-2004 18:00, Mayor que la Máxima 12.4 27-06-2004 00:00 14.0 -- 12.4 2023-12-31 02:47:00
2005-04-30 00:00:00 Temperatura 20.1 del 29-04-2005 18:00, Mayor que la Máxima 16.1 30-04-2005 00:00 20.1 -- 16.1 2023-12-31 02:47:00
2002-05-25 12:00:00 Temperatura 5.4 del 25-05-2002 12:00, Menor que la Mínima 10.0 25-05-2002 12:00 5.4 -- 10.0 2023-12-30 22:11:00
2003-07-03 12:00:00 Temperatura 7.4 del 03-07-2003 12:00, Menor que la Mínima 8.2 03-07-2003 12:00 7.4 -- 8.2 2023-12-30 00:41:00
2004-04-13 12:00:00 Temperatura 12.0 del 13-04-2004 12:00, Menor que la Mínima 12.4 13-04-2004 12:00 12.0 -- 12.4 2023-12-30 00:42:00
2005-04-18 12:00:00 Temperatura 8.2 del 18-04-2005 12:00, Menor que la Mínima 9.6 18-04-2005 12:00 8.2 -- 9.6 2023-12-31 02:47:00
Total de Errores Recientes 24

Detalle de Errores Encontrados

Nivel Fecha del Dato Descripción Información Error Fecha Ingreso
1 2002-05-02 00:00:00 No se informa dirección del Viento (dd), pero si una fuerza y el viento no es variable 2023-12-30 22:11:00
1 2002-11-01 12:00:00 Viento calma fue mal ingresado. dd = 0 - ff = 2 2023-12-30 22:12:00
Errores del Nivel 2
Nivel Fecha del Dato Descripción Información Error Fecha Ingreso
2 2002-09-01 00:00:00 Temperatura 16.2 del 31-08-2002 18:00, Mayor que la Máxima 6.2 01-09-2002 00:00 16.2 -- 6.2 2023-12-30 22:12:00
2 2002-11-16 00:00:00 Temperatura 27.1 del 15-11-2002 18:00, Mayor que la Máxima 24.0 16-11-2002 00:00 27.1 -- 24.0 2023-12-30 22:12:00
2 2002-12-01 00:00:00 Temperatura 24.0 del 30-11-2002 18:00, Mayor que la Máxima 23.4 01-12-2002 00:00 24.0 -- 23.4 2023-12-30 22:12:00
2 2003-04-29 00:00:00 Temperatura 19.2 del 28-04-2003 18:00, Mayor que la Máxima 18.2 29-04-2003 00:00 19.2 -- 18.2 2023-12-30 22:12:00
2 2003-07-27 00:00:00 Temperatura 16.2 del 26-07-2003 18:00, Mayor que la Máxima 12.2 27-07-2003 00:00 16.2 -- 12.2 2023-12-30 00:41:00
2 2003-10-30 00:00:00 Temperatura 26.0 del 29-10-2003 18:00, Mayor que la Máxima 22.2 30-10-2003 00:00 26.0 -- 22.2 2023-12-30 00:41:00
2 2003-11-17 00:00:00 Temperatura 14.0 del 16-11-2003 18:00, Mayor que la Máxima 11.4 17-11-2003 00:00 14.0 -- 11.4 2023-12-30 00:41:00
2 2003-12-05 00:00:00 Temperatura 22.0 del 04-12-2003 18:00, Mayor que la Máxima 20.4 05-12-2003 00:00 22.0 -- 20.4 2023-12-30 00:41:00
2 2004-01-11 00:00:00 Temperatura 32.0 del 10-01-2004 18:00, Mayor que la Máxima 31.0 11-01-2004 00:00 32.0 -- 31.0 2023-12-30 00:41:00
2 2004-04-10 00:00:00 Temperatura 23.2 del 09-04-2004 18:00, Mayor que la Máxima 22.4 10-04-2004 00:00 23.2 -- 22.4 2023-12-30 00:42:00
2 2004-04-16 00:00:00 Temperatura 17.2 del 15-04-2004 18:00, Mayor que la Máxima 16.4 16-04-2004 00:00 17.2 -- 16.4 2023-12-30 00:42:00
2 2004-05-02 00:00:00 Temperatura 18.1 del 01-05-2004 18:00, Mayor que la Máxima 16.2 02-05-2004 00:00 18.1 -- 16.2 2023-12-31 02:47:00
2 2004-05-04 00:00:00 Temperatura 20.4 del 03-05-2004 18:00, Mayor que la Máxima 16.8 04-05-2004 00:00 20.4 -- 16.8 2023-12-31 02:47:00
2 2004-05-21 00:00:00 Temperatura 14.2 del 20-05-2004 18:00, Mayor que la Máxima 14.1 21-05-2004 00:00 14.2 -- 14.1 2023-12-31 02:47:00
2 2004-05-23 00:00:00 Temperatura 17.0 del 22-05-2004 18:00, Mayor que la Máxima 12.4 23-05-2004 00:00 17.0 -- 12.4 2023-12-31 02:47:00
2 2004-06-08 00:00:00 Temperatura 14.2 del 07-06-2004 18:00, Mayor que la Máxima 13.4 08-06-2004 00:00 14.2 -- 13.4 2023-12-31 02:47:00
2 2004-06-27 00:00:00 Temperatura 14.0 del 26-06-2004 18:00, Mayor que la Máxima 12.4 27-06-2004 00:00 14.0 -- 12.4 2023-12-31 02:47:00
2 2005-04-30 00:00:00 Temperatura 20.1 del 29-04-2005 18:00, Mayor que la Máxima 16.1 30-04-2005 00:00 20.1 -- 16.1 2023-12-31 02:47:00
2 2002-05-25 12:00:00 Temperatura 5.4 del 25-05-2002 12:00, Menor que la Mínima 10.0 25-05-2002 12:00 5.4 -- 10.0 2023-12-30 22:11:00
2 2003-07-03 12:00:00 Temperatura 7.4 del 03-07-2003 12:00, Menor que la Mínima 8.2 03-07-2003 12:00 7.4 -- 8.2 2023-12-30 00:41:00
2 2004-04-13 12:00:00 Temperatura 12.0 del 13-04-2004 12:00, Menor que la Mínima 12.4 13-04-2004 12:00 12.0 -- 12.4 2023-12-30 00:42:00
2 2005-04-18 12:00:00 Temperatura 8.2 del 18-04-2005 12:00, Menor que la Mínima 9.6 18-04-2005 12:00 8.2 -- 9.6 2023-12-31 02:47:00
2 2023-01-15 12:00:00 Temperatura 13.2 del 15-01-2023 10:00, Menor que la Mínima 16.2 15-01-2023 12:00 13.2 -- 16.2 2023-01-15 12:21:00
Errores del Nivel 23
Informe generado el 23-02-2024 10:13
Requerimiento: RE6001